Main page
METAR-TAF:

METAR-TAF

Airports :

Munda Airport

Munda, New Georgia, Solomon Islands

latitude: 8-19-41S, longitude: 157-15-47E, elevation: 3 m

Current weather observation

The report was made 7 hours and 46 minutes ago, at 06:00 UTC
Calm wind
Temperature 30°C
Humidity 75%
Pressure 1006 hPa
Visibility 10 km or more
Few clouds at a height of 1800 ft
Scattered clouds at a height of 10000 ft
Broken clouds at a height of 30000 ft

METAR: AGGM 290600Z 00000KT 9999 FEW018 SCT100 BKN300 30/25 Q1006

Time: 00:46 (13:46 UTC)

Forecast

The report was made 8 hours and 34 minutes ago, at 05:12 UTC
Forecast valid from 29 at 06 UTC to 01 at 06 UTC
Wind 3 kt from variable directions
Visibility: 1006 m
Scattered clouds at a height of 1800 ft

TAF: AGGM 290512Z 2906/0106 VRB03KT 9999 SCT018 Q 1005 1007 1008 1006

Weather observations and forecasts of more than 4000 airports (METAR and TAF reports).

The available stations are represented by yellow and red dots on the map.

Hover mouse over dot to see the name of the station.

Then click to see weather observations and forecasts.

To change the map : click on the green buttons with a black cross to zoom in, on the green button with a dash to zoom out, or on the green arrows for adjacent maps.


METAR-TAF: